Terminal Aerodrome Forecast
Issued by NWS

Home | Current Version | Previous Version | Text Only | Print | Product List | Glossary On
Versions: 1 2 3 4 5 6 7 8 9 10 11 12 13 14 15 16 17 18
797
FTUS46 KLOX 260540
TAFWJF
TAF
KWJF 260540Z 2606/2706 26010KT P6SM OVC100
     FM261200 23007KT P6SM VCSH SCT025 OVC040
     FM262100 22015KT P6SM SCT025 BKN050
     FM270400 22007KT P6SM BKN050=

USA.gov is the U.S. government's official web portal to all federal, state and local government web resources and services.